Airfield :
LOGIN :

Register | Disclaimer

   EN    FR    IT 

 










Legend :    VFR   Marginal VFR   IFR   Intensive IFR   Very Intensive IFR
Visi :
Ceiling :
>= 8 km
>= 3000ft
5 to 8 km
1000 to 3000 ft
1500m to 5 km
500 to 1000 ft
800 to 1500m
200 to 500 ft
< 800m
< 200 ft
Symbols :   Thunderstorms  Fog  Heavy snow  Heavy precipitations  Wind > 20 kt
SIGMETs :     Misc.  Thunderstorms  Icing  Turbulence  Mountain Waves  Volcanic Ashes







- Airport Elevation : 355 ft
- IATA code : VBS


LIPO - Montichiari - Brescia

CURRENT METAR :
  • 200050Z 23001KT 9999 SCT050 03/01 Q1012

EXPIRED METARs :
  • 192350Z 16004KT 9999 BKN050 03/01 Q1013
  • 192250Z 00000KT 9999 BKN050 04/M00 Q1013

TAF TAF LIPO
Valid from the 20 at 00:00 until the 21 at 00:00 UTC


192300Z 2000/2024 VRB05KT 9999 BKN050
No reported NOTAMs for that airfield.
2 SIGMETs reported for the Milano FIR (LIMM) :
 
Severe turbulence
LIMM SIGMET 7 VALID 192130/200130 LIIP
LIMM MILANO FIR SEV TURB FCST W OF LINE N4634 E00934 - N4334 E00749 FL240/380 STNR NC=
Severe turbulence
LIMM SIGMET 1 VALID 200130/200530 LIIP
LIMM MILANO FIR SEV TURB FCST W OF LINE N4713 E01154 - N4302 E01014 FL240/380 STNR NC=



MET'MAP, your aeronautical weather chart ! - Copyright ORBIFLY December 2007 - Disclaimer

ORBIFLY MET'MAP TEAM :

Programming & Development : Alexandra Zaïnal
Concept & Development : Baudouin d'Aumeries
Co-Development & Prog : Marc-Olivier Méhu
Technical & hardware support : Manuel Goepfert

Contact : metmap@orbifly.com




SOURCES & CREDITS :

   NOAA